createdAt,value
2022-12-16T00:01:49.765Z,15.30
2022-12-16T00:04:19.940Z,8.63
2022-12-16T00:06:48.016Z,4.23
2022-12-16T00:09:16.098Z,7.37
2022-12-16T00:11:44.129Z,40.47
2022-12-16T00:14:12.180Z,16.00
2022-12-16T00:16:41.747Z,10.57
2022-12-16T00:19:09.860Z,11.23
2022-12-16T00:21:37.919Z,16.07
2022-12-16T00:24:06.125Z,8.10
2022-12-16T00:26:34.193Z,10.93
2022-12-16T00:29:05.307Z,21.97
2022-12-16T00:31:33.420Z,18.17
2022-12-16T00:34:02.987Z,11.80
2022-12-16T00:36:31.113Z,5.80
2022-12-16T00:38:59.187Z,6.33
2022-12-16T00:41:27.227Z,4.53
2022-12-16T00:43:55.275Z,11.33
2022-12-16T00:46:23.386Z,5.23
2022-12-16T00:48:51.557Z,5.93
2022-12-16T00:51:21.353Z,7.67
2022-12-16T00:53:49.356Z,5.30
2022-12-16T00:56:18.201Z,6.80
2022-12-16T00:58:46.337Z,3.43
2022-12-16T01:01:14.759Z,7.70
2022-12-16T01:03:43.101Z,4.87
2022-12-16T01:06:13.088Z,6.87
2022-12-16T01:08:48.152Z,6.20
2022-12-16T01:11:17.370Z,5.73
2022-12-16T01:13:46.177Z,8.43
2022-12-16T01:16:15.359Z,4.80
2022-12-16T01:18:43.451Z,4.70
2022-12-16T01:21:14.898Z,7.73
2022-12-16T01:23:44.323Z,6.47
2022-12-16T01:26:17.443Z,4.33
2022-12-16T01:28:45.764Z,7.37
2022-12-16T01:31:14.382Z,3.30
2022-12-16T01:33:42.471Z,6.37
2022-12-16T01:36:11.120Z,4.70
2022-12-16T01:38:39.338Z,6.13
2022-12-16T01:41:08.727Z,6.67
2022-12-16T01:43:38.885Z,7.33
2022-12-16T01:46:10.635Z,6.03
2022-12-16T01:48:44.947Z,5.57
2022-12-16T01:51:17.264Z,4.70
2022-12-16T01:53:48.587Z,10.30
2022-12-16T01:56:20.846Z,3.17
2022-12-16T01:58:49.012Z,5.63
2022-12-16T02:01:17.954Z,4.67
2022-12-16T02:03:46.130Z,5.20
2022-12-16T02:06:14.138Z,5.27
2022-12-16T02:08:42.143Z,4.60
2022-12-16T02:11:42.705Z,5.50
2022-12-16T02:14:27.569Z,4.23
2022-12-16T02:17:00.186Z,3.97
2022-12-16T02:20:12.705Z,6.07
2022-12-16T02:22:52.703Z,4.60
2022-12-16T02:25:48.338Z,7.30
2022-12-16T02:28:33.491Z,3.07
2022-12-16T02:31:14.677Z,5.70
2022-12-16T02:33:53.952Z,4.33
2022-12-16T02:36:32.642Z,3.70
2022-12-16T02:39:04.786Z,4.33
2022-12-16T02:41:42.676Z,5.07
2022-12-16T02:44:12.779Z,8.90
2022-12-16T02:46:43.865Z,3.63
2022-12-16T02:49:47.190Z,4.53
2022-12-16T02:52:16.473Z,3.30
2022-12-16T02:54:45.831Z,3.20
2022-12-16T02:57:30.038Z,2.20
2022-12-16T03:00:03.849Z,2.60
2022-12-16T03:02:42.945Z,3.03
2022-12-16T03:05:15.636Z,7.60
2022-12-16T03:07:45.973Z,2.57
2022-12-16T03:10:18.440Z,4.23
2022-12-16T03:12:47.691Z,5.83
2022-12-16T03:15:19.430Z,1.87
2022-12-16T03:17:51.358Z,4.57
2022-12-16T03:20:23.958Z,6.10
2022-12-16T03:22:53.921Z,2.93
2022-12-16T03:25:22.963Z,2.93
2022-12-16T03:27:58.381Z,2.20
2022-12-16T03:30:31.213Z,2.37
2022-12-16T03:33:05.351Z,1.70
2022-12-16T03:35:37.956Z,3.70
2022-12-16T03:38:09.757Z,4.77
2022-12-16T03:40:39.926Z,4.60
2022-12-16T03:43:08.986Z,5.07
2022-12-16T03:45:39.433Z,5.50
2022-12-16T03:48:11.050Z,3.93
2022-12-16T03:50:39.757Z,4.90
2022-12-16T03:53:08.654Z,2.23
2022-12-16T03:55:36.776Z,3.30
2022-12-16T03:58:05.030Z,3.57
2022-12-16T04:00:33.038Z,1.97
2022-12-16T04:03:01.211Z,3.13
2022-12-16T04:05:30.721Z,2.53
2022-12-16T04:08:01.784Z,4.90
2022-12-16T04:10:48.604Z,2.53
2022-12-16T04:13:34.305Z,1.77
2022-12-16T04:16:20.015Z,2.20
2022-12-16T04:19:06.593Z,2.17
2022-12-16T04:21:53.356Z,2.37
2022-12-16T04:24:28.252Z,1.60
2022-12-16T04:27:15.860Z,2.70
2022-12-16T04:29:58.400Z,2.20
2022-12-16T04:32:26.763Z,2.20
2022-12-16T04:34:53.837Z,2.33
2022-12-16T04:37:40.542Z,4.13
2022-12-16T04:40:27.056Z,3.90
2022-12-16T04:43:12.409Z,2.33
2022-12-16T04:45:58.049Z,1.43
2022-12-16T04:48:43.789Z,2.27
2022-12-16T04:51:29.162Z,1.80
2022-12-16T04:54:16.024Z,1.83
2022-12-16T04:57:01.444Z,3.17
2022-12-16T04:59:47.015Z,1.80
2022-12-16T05:02:32.745Z,1.83
2022-12-16T05:05:18.525Z,2.10
2022-12-16T05:08:03.868Z,2.23
2022-12-16T05:10:50.573Z,3.00
2022-12-16T05:13:49.241Z,1.87
2022-12-16T05:16:35.093Z,2.17
2022-12-16T05:19:20.350Z,2.57
2022-12-16T05:22:05.735Z,3.10
2022-12-16T05:24:52.976Z,3.27
2022-12-16T05:27:38.734Z,1.63
2022-12-16T05:30:33.382Z,1.97
2022-12-16T05:33:19.437Z,2.77
2022-12-16T05:36:05.066Z,2.87
2022-12-16T05:38:50.422Z,2.57
2022-12-16T05:41:35.822Z,4.60
2022-12-16T05:44:21.698Z,3.13
2022-12-16T05:47:08.827Z,7.40
2022-12-16T05:49:54.396Z,3.60
2022-12-16T05:52:40.208Z,2.27
2022-12-16T05:55:32.150Z,2.67
2022-12-16T05:58:19.615Z,2.80
2022-12-16T06:01:05.151Z,1.30
2022-12-16T06:03:51.941Z,1.67
2022-12-16T06:06:37.387Z,2.30
2022-12-16T06:09:23.373Z,2.60
2022-12-16T06:12:09.179Z,1.70
2022-12-16T06:14:54.758Z,2.00
2022-12-16T06:17:40.446Z,4.57
2022-12-16T06:20:28.454Z,4.17
2022-12-16T06:23:14.530Z,2.40
2022-12-16T06:26:00.430Z,3.03
2022-12-16T06:28:54.122Z,6.20
2022-12-16T06:31:39.903Z,2.37
2022-12-16T06:34:25.477Z,1.90
2022-12-16T06:37:12.285Z,2.43
2022-12-16T06:39:57.875Z,2.27
2022-12-16T06:42:43.367Z,2.50
2022-12-16T06:45:34.484Z,2.60
2022-12-16T06:48:20.686Z,3.10
2022-12-16T06:51:06.308Z,1.73
2022-12-16T06:53:53.104Z,1.40
2022-12-16T06:56:38.579Z,4.20
2022-12-16T06:59:24.407Z,3.10
2022-12-16T07:02:09.952Z,1.43
2022-12-16T07:04:55.528Z,2.47
2022-12-16T07:07:40.902Z,1.70
2022-12-16T07:10:33.609Z,1.43
2022-12-16T07:13:19.238Z,4.60
2022-12-16T07:16:05.631Z,2.17
2022-12-16T07:18:51.120Z,4.87
2022-12-16T07:21:36.544Z,2.53
2022-12-16T07:24:22.606Z,2.30
2022-12-16T07:27:09.358Z,2.63
2022-12-16T07:29:54.849Z,1.83
2022-12-16T07:32:40.158Z,3.47
2022-12-16T07:35:26.071Z,2.60
2022-12-16T07:38:11.452Z,2.80
2022-12-16T07:40:57.008Z,1.23
2022-12-16T07:43:43.824Z,1.87
2022-12-16T07:46:29.274Z,2.70
2022-12-16T07:49:20.088Z,2.17
2022-12-16T07:52:05.834Z,1.23
2022-12-16T07:54:51.337Z,3.00
2022-12-16T07:57:36.810Z,2.37
2022-12-16T08:00:25.073Z,2.40
2022-12-16T08:03:12.419Z,2.83
2022-12-16T08:05:57.941Z,1.77
2022-12-16T08:08:44.088Z,2.53
2022-12-16T08:11:29.385Z,3.10
2022-12-16T08:14:14.890Z,2.00
2022-12-16T08:17:00.914Z,2.03
2022-12-16T08:19:46.583Z,2.60
2022-12-16T08:22:31.973Z,3.00
2022-12-16T08:25:17.328Z,2.00
2022-12-16T08:28:02.943Z,4.10
2022-12-16T08:30:48.552Z,3.10
2022-12-16T08:33:35.514Z,2.03
2022-12-16T08:36:21.250Z,2.40
2022-12-16T08:39:06.607Z,3.23
2022-12-16T08:42:03.481Z,3.27
2022-12-16T08:44:48.890Z,1.93
2022-12-16T08:47:34.708Z,2.80
2022-12-16T08:50:21.869Z,2.60
2022-12-16T08:53:07.421Z,4.33
2022-12-16T08:55:55.924Z,2.10
2022-12-16T08:58:41.593Z,2.00
2022-12-16T09:01:23.691Z,2.70
2022-12-16T09:04:09.535Z,1.60
2022-12-16T09:06:56.229Z,2.07
2022-12-16T09:09:41.606Z,2.40
2022-12-16T09:12:27.026Z,3.90
2022-12-16T09:15:12.497Z,2.40
2022-12-16T09:17:58.001Z,2.30
2022-12-16T09:20:43.495Z,2.30
2022-12-16T09:23:26.785Z,1.73
2022-12-16T09:26:12.554Z,2.10
2022-12-16T09:28:58.102Z,5.10
2022-12-16T09:31:58.065Z,1.60
2022-12-16T09:34:43.962Z,2.57
2022-12-16T09:37:29.955Z,4.00
2022-12-16T09:40:17.033Z,3.83
2022-12-16T09:43:09.794Z,3.33
2022-12-16T09:46:03.232Z,3.73
2022-12-16T09:48:56.256Z,3.00
2022-12-16T09:51:42.998Z,3.20
2022-12-16T09:54:32.459Z,2.10
2022-12-16T09:57:22.121Z,3.27
2022-12-16T10:00:21.097Z,4.03
2022-12-16T10:03:08.834Z,6.57
2022-12-16T10:06:04.099Z,5.97
2022-12-16T10:08:58.016Z,3.87
2022-12-16T10:11:52.001Z,2.53
2022-12-16T10:14:44.431Z,3.93
2022-12-16T10:17:42.948Z,4.37
2022-12-16T10:20:39.318Z,4.50
2022-12-16T10:23:34.598Z,4.63
2022-12-16T10:26:25.157Z,3.57
2022-12-16T10:29:16.701Z,3.73
2022-12-16T10:32:03.857Z,2.60
2022-12-16T10:34:53.295Z,1.63
2022-12-16T10:37:47.665Z,2.20
2022-12-16T10:40:37.467Z,2.67
2022-12-16T10:43:29.967Z,2.87
2022-12-16T10:46:16.820Z,3.20
2022-12-16T10:49:09.530Z,2.27
2022-12-16T10:51:55.244Z,4.23
2022-12-16T10:54:53.933Z,3.87
2022-12-16T10:57:53.395Z,3.23
2022-12-16T11:00:56.894Z,4.00
2022-12-16T11:03:44.896Z,3.70
2022-12-16T11:06:36.343Z,5.63
2022-12-16T11:09:44.149Z,2.80
2022-12-16T11:12:54.045Z,5.77
2022-12-16T11:15:42.863Z,2.50
2022-12-16T11:18:30.695Z,4.67
2022-12-16T11:21:32.087Z,4.07
2022-12-16T11:24:32.758Z,5.20
2022-12-16T11:27:20.021Z,6.50
2022-12-16T11:30:10.340Z,3.17
2022-12-16T11:33:00.416Z,4.37
2022-12-16T11:35:48.459Z,3.67
2022-12-16T11:38:40.702Z,2.67
2022-12-16T11:41:33.119Z,2.20
2022-12-16T11:44:21.102Z,3.03
2022-12-16T11:47:10.441Z,6.10
2022-12-16T11:49:55.814Z,4.23
2022-12-16T11:52:42.120Z,6.90
2022-12-16T11:56:04.858Z,5.53
2022-12-16T11:58:52.544Z,3.90
2022-12-16T12:01:45.555Z,4.90
2022-12-16T12:04:32.452Z,5.23
2022-12-16T12:07:41.093Z,4.13
2022-12-16T12:10:53.935Z,3.87
2022-12-16T12:13:58.376Z,5.53
2022-12-16T12:16:57.835Z,4.43
2022-12-16T12:19:52.868Z,4.67
2022-12-16T12:22:46.362Z,5.47
2022-12-16T12:25:42.157Z,3.40
2022-12-16T12:28:41.766Z,4.90
2022-12-16T12:31:41.465Z,8.00
2022-12-16T12:34:37.452Z,5.50
2022-12-16T12:37:28.097Z,4.67
2022-12-16T12:40:20.807Z,3.50
2022-12-16T12:43:11.965Z,3.60
2022-12-16T12:46:09.126Z,5.60
2022-12-16T12:49:03.009Z,13.70
2022-12-16T12:51:56.027Z,6.63
2022-12-16T12:54:52.203Z,6.13
2022-12-16T12:57:44.219Z,5.37
2022-12-16T13:00:36.158Z,3.67
2022-12-16T13:03:32.154Z,5.60
2022-12-16T13:06:18.980Z,6.03
2022-12-16T13:09:14.656Z,5.97
2022-12-16T13:12:42.029Z,6.10
2022-12-16T13:15:29.533Z,5.80
2022-12-16T13:18:47.292Z,4.97
2022-12-16T13:22:04.113Z,4.10
2022-12-16T13:25:02.212Z,3.40
2022-12-16T13:28:05.189Z,7.17
2022-12-16T13:30:52.115Z,7.57
2022-12-16T13:33:43.257Z,5.13
2022-12-16T13:36:32.314Z,5.23
2022-12-16T13:39:30.440Z,3.00
2022-12-16T13:42:19.641Z,5.77
2022-12-16T13:45:17.951Z,3.23
2022-12-16T13:48:22.689Z,3.43
2022-12-16T13:51:18.099Z,4.67
2022-12-16T13:54:09.090Z,4.23
2022-12-16T13:56:59.500Z,7.47
2022-12-16T13:59:48.913Z,4.83
2022-12-16T14:02:45.544Z,4.63
2022-12-16T14:05:42.074Z,8.57
2022-12-16T14:08:36.092Z,4.47
2022-12-16T14:11:25.958Z,5.13
2022-12-16T14:14:19.528Z,3.37
2022-12-16T14:17:11.734Z,4.40
2022-12-16T14:20:09.171Z,5.33
2022-12-16T14:23:10.628Z,6.50
2022-12-16T14:25:57.899Z,4.50
2022-12-16T14:28:48.301Z,6.30
2022-12-16T14:31:39.326Z,5.90
2022-12-16T14:34:39.394Z,5.63
2022-12-16T14:37:30.890Z,5.57
2022-12-16T14:40:16.238Z,6.73
2022-12-16T14:43:02.300Z,6.23
2022-12-16T14:45:52.386Z,4.70
2022-12-16T14:48:49.502Z,5.50
2022-12-16T14:51:46.340Z,4.03
2022-12-16T14:54:41.888Z,8.00
2022-12-16T14:57:33.995Z,9.30
2022-12-16T15:00:31.053Z,9.83
2022-12-16T15:03:22.551Z,8.20
2022-12-16T15:06:08.805Z,8.20
2022-12-16T15:09:06.461Z,5.30
2022-12-16T15:11:53.114Z,5.37
2022-12-16T15:14:46.827Z,6.47
2022-12-16T15:17:41.263Z,7.03
2022-12-16T15:20:36.849Z,7.00
2022-12-16T15:23:34.516Z,5.53
2022-12-16T15:26:20.322Z,6.20
2022-12-16T15:29:06.406Z,9.23
2022-12-16T15:31:55.977Z,4.10
2022-12-16T15:34:49.305Z,7.27
2022-12-16T15:37:42.178Z,5.33
2022-12-16T15:40:43.354Z,4.97
2022-12-16T15:43:44.489Z,5.20
2022-12-16T15:46:38.498Z,5.03
2022-12-16T15:49:25.766Z,4.10
2022-12-16T15:52:11.210Z,3.40
2022-12-16T15:55:10.486Z,5.93
2022-12-16T15:57:57.299Z,5.43
2022-12-16T16:00:45.193Z,3.77
2022-12-16T16:03:40.287Z,6.53
2022-12-16T16:06:36.534Z,4.20
2022-12-16T16:09:32.185Z,4.90
2022-12-16T16:12:19.280Z,5.73
2022-12-16T16:15:04.582Z,3.63
2022-12-16T16:17:50.111Z,3.97
2022-12-16T16:20:37.031Z,4.87
2022-12-16T16:23:22.932Z,5.30
2022-12-16T16:26:08.602Z,4.00
2022-12-16T16:29:00.740Z,3.93
2022-12-16T16:31:46.698Z,5.10
2022-12-16T16:34:32.260Z,4.70
2022-12-16T16:37:18.602Z,5.37
2022-12-16T16:40:04.034Z,6.43
2022-12-16T16:42:49.940Z,3.57
2022-12-16T16:45:36.850Z,6.03
2022-12-16T16:48:28.409Z,3.03
2022-12-16T16:51:15.248Z,35.17
2022-12-16T16:54:01.778Z,29.10
2022-12-16T16:56:50.217Z,39.13
2022-12-16T16:59:35.855Z,11.23
2022-12-16T17:02:40.257Z,5.63
2022-12-16T17:05:27.201Z,6.90
2022-12-16T17:08:12.696Z,4.77
2022-12-16T17:10:58.132Z,7.20
2022-12-16T17:13:43.515Z,5.20
2022-12-16T17:16:30.649Z,5.10
2022-12-16T17:19:24.746Z,6.03
2022-12-16T17:22:10.438Z,5.67
2022-12-16T17:24:55.964Z,6.90
2022-12-16T17:27:43.860Z,4.97
2022-12-16T17:30:34.610Z,5.80
2022-12-16T17:33:20.626Z,6.00
2022-12-16T17:36:08.655Z,5.80
2022-12-16T17:38:57.033Z,6.50
2022-12-16T17:41:42.798Z,5.70
2022-12-16T17:44:28.258Z,4.23
2022-12-16T17:47:13.709Z,5.13
2022-12-16T17:50:04.335Z,4.37
2022-12-16T17:52:51.353Z,3.83
2022-12-16T17:55:36.814Z,4.47
2022-12-16T17:58:22.279Z,3.60
2022-12-16T18:01:07.803Z,5.23
2022-12-16T18:03:53.324Z,5.03
2022-12-16T18:06:39.325Z,8.17
2022-12-16T18:09:26.261Z,7.40
2022-12-16T18:12:26.090Z,11.63
2022-12-16T18:15:11.673Z,18.70
2022-12-16T18:17:57.313Z,9.53
2022-12-16T18:20:43.164Z,8.47
2022-12-16T18:23:32.612Z,5.90
2022-12-16T18:26:22.106Z,5.43
2022-12-16T18:29:07.472Z,4.73
2022-12-16T18:31:53.548Z,5.77
2022-12-16T18:34:39.753Z,6.37
2022-12-16T18:37:25.554Z,5.00
2022-12-16T18:40:11.129Z,5.83
2022-12-16T18:42:58.003Z,8.37
2022-12-16T18:45:43.427Z,8.20
2022-12-16T18:48:28.881Z,7.70
2022-12-16T18:51:15.467Z,10.10
2022-12-16T18:54:12.338Z,8.90
2022-12-16T18:56:58.451Z,4.80
2022-12-16T18:59:45.591Z,8.00
2022-12-16T19:02:31.120Z,5.30
2022-12-16T19:05:16.851Z,8.10
2022-12-16T19:08:02.332Z,6.10
2022-12-16T19:10:47.625Z,6.73
2022-12-16T19:13:34.015Z,5.83
2022-12-16T19:16:21.286Z,5.67
2022-12-16T19:19:06.773Z,2.90
2022-12-16T19:21:56.226Z,5.70
2022-12-16T19:24:42.568Z,5.80
2022-12-16T19:27:28.290Z,6.00
2022-12-16T19:30:13.753Z,92.13
2022-12-16T19:33:00.548Z,67.17
2022-12-16T19:35:45.985Z,41.73
2022-12-16T19:38:31.884Z,38.03
2022-12-16T19:41:17.375Z,17.73
2022-12-16T19:44:06.150Z,17.30
2022-12-16T19:46:55.900Z,11.13
2022-12-16T19:52:49.130Z,6.50
2022-12-16T19:55:34.955Z,10.87
2022-12-16T19:58:20.647Z,7.57
2022-12-16T20:01:06.032Z,5.33
2022-12-16T20:03:52.386Z,10.73
2022-12-16T20:06:43.759Z,7.63
2022-12-16T20:09:29.259Z,6.80
2022-12-16T20:12:14.627Z,5.57
2022-12-16T20:15:00.080Z,7.53
2022-12-16T20:17:45.586Z,5.13
2022-12-16T20:20:30.859Z,3.70
2022-12-16T20:23:18.060Z,5.87
2022-12-16T20:26:11.661Z,7.73
2022-12-16T20:28:57.082Z,6.43
2022-12-16T20:31:42.552Z,6.90
2022-12-16T20:34:28.565Z,3.90
2022-12-16T20:37:14.330Z,5.73
2022-12-16T20:40:01.394Z,7.27
2022-12-16T20:42:47.198Z,6.40
2022-12-16T20:45:33.527Z,7.90
2022-12-16T20:48:18.945Z,10.40
2022-12-16T20:51:12.045Z,13.90
2022-12-16T20:53:56.426Z,8.90
2022-12-16T20:56:43.452Z,13.30
2022-12-16T20:59:29.021Z,9.97
2022-12-16T21:02:23.246Z,6.40
2022-12-16T21:05:20.419Z,5.10
2022-12-16T21:08:05.939Z,8.50
2022-12-16T21:10:51.757Z,7.50
2022-12-16T21:13:38.682Z,7.23
2022-12-16T21:16:25.570Z,5.23
2022-12-16T21:19:11.110Z,4.77
2022-12-16T21:21:56.972Z,6.10
2022-12-16T21:24:43.001Z,5.73
2022-12-16T21:27:28.968Z,9.20
2022-12-16T21:30:15.680Z,4.13
2022-12-16T21:33:01.294Z,6.30
2022-12-16T21:35:47.114Z,5.70
2022-12-16T21:38:32.623Z,4.97
2022-12-16T21:41:18.014Z,5.50
2022-12-16T21:44:03.567Z,7.37
2022-12-16T21:46:50.274Z,6.13
2022-12-16T21:49:35.790Z,8.90
2022-12-16T21:52:21.198Z,6.10
2022-12-16T21:55:06.666Z,6.90
2022-12-16T21:57:53.308Z,5.50
2022-12-16T22:00:39.265Z,6.83
2022-12-16T22:03:26.094Z,5.40
2022-12-16T22:06:11.742Z,7.73
2022-12-16T22:08:57.068Z,4.97
2022-12-16T22:11:42.597Z,9.83
2022-12-16T22:14:28.232Z,5.67
2022-12-16T22:17:13.843Z,5.63
2022-12-16T22:19:59.936Z,9.17
2022-12-16T22:22:45.309Z,4.63
2022-12-16T22:25:31.162Z,5.40
2022-12-16T22:28:16.767Z,4.13
2022-12-16T22:31:02.221Z,3.40
2022-12-16T22:33:48.211Z,6.40
2022-12-16T22:36:20.353Z,9.50
2022-12-16T22:36:35.734Z,7.37
2022-12-16T22:39:21.180Z,6.80
2022-12-16T22:42:06.695Z,6.60
2022-12-16T22:44:52.149Z,5.33
2022-12-16T22:47:37.628Z,4.77
2022-12-16T22:50:24.350Z,10.40
2022-12-16T22:53:11.171Z,9.30
2022-12-16T22:56:01.812Z,10.07
2022-12-16T22:58:49.857Z,10.87
2022-12-16T23:01:35.640Z,14.87
2022-12-16T23:04:21.574Z,15.70
2022-12-16T23:07:07.098Z,12.83
2022-12-16T23:09:54.113Z,11.93
2022-12-16T23:12:42.028Z,11.07
2022-12-16T23:15:30.178Z,14.63
2022-12-16T23:18:16.336Z,10.93
2022-12-16T23:21:04.179Z,10.40
2022-12-16T23:23:49.747Z,7.77
2022-12-16T23:26:38.694Z,7.23
2022-12-16T23:29:24.905Z,10.67
2022-12-16T23:32:10.994Z,14.37
2022-12-16T23:34:56.684Z,16.00
2022-12-16T23:37:42.232Z,14.53
2022-12-16T23:40:29.155Z,15.33
2022-12-16T23:43:16.384Z,9.43
2022-12-16T23:46:02.204Z,8.40
2022-12-16T23:48:47.733Z,6.53
2022-12-16T23:51:33.189Z,5.67
2022-12-16T23:54:18.687Z,9.43
2022-12-16T23:57:04.183Z,9.30
2022-12-16T23:59:50.879Z,7.40
